createdAt,value
2018-10-02T00:02:03.238Z,99783.23
2018-10-02T00:04:34.441Z,99780.94
2018-10-02T00:07:04.911Z,99780.45
2018-10-02T00:09:35.285Z,99780.39
2018-10-02T00:12:10.958Z,99780.72
2018-10-02T00:14:41.187Z,99792.39
2018-10-02T00:17:11.713Z,99792.56
2018-10-02T00:19:41.321Z,99792.45
2018-10-02T00:22:12.680Z,99791.27
2018-10-02T00:24:42.884Z,99792.00
2018-10-02T00:27:12.873Z,99788.72
2018-10-02T00:29:42.679Z,99788.64
2018-10-02T00:32:13.423Z,99788.81
2018-10-02T00:34:43.206Z,99787.25
2018-10-02T00:37:13.071Z,99785.98
2018-10-02T00:39:43.001Z,99786.78
2018-10-02T00:42:12.620Z,99794.66
2018-10-02T00:44:42.843Z,99784.11
2018-10-02T00:47:12.988Z,99786.54
2018-10-02T00:49:42.400Z,99787.45
2018-10-02T00:52:13.149Z,99782.93
2018-10-02T09:07:37.582Z,99743.67
2018-10-02T09:10:07.626Z,99770.06
2018-10-02T09:12:37.744Z,99754.66
2018-10-02T09:15:12.486Z,99754.05
2018-10-02T09:17:42.606Z,99754.16
2018-10-02T09:20:14.329Z,99747.70
2018-10-02T09:22:45.721Z,99750.13
2018-10-02T09:25:17.362Z,99755.11
2018-10-02T09:27:47.891Z,99738.19
2018-10-02T09:30:25.837Z,99735.39
2018-10-02T09:33:03.265Z,99738.02
2018-10-02T09:35:40.383Z,99728.89
2018-10-02T09:38:16.852Z,99732.78
2018-10-02T09:40:52.402Z,99726.77
2018-10-02T09:43:31.113Z,99714.44
2018-10-02T09:46:01.798Z,99713.44
2018-10-02T09:48:31.993Z,99716.87
2018-10-02T09:51:05.347Z,99713.52
2018-10-02T09:53:40.160Z,99705.80
2018-10-02T09:56:17.162Z,99702.14
2018-10-02T09:58:50.665Z,99681.59
2018-10-02T10:01:31.201Z,99695.81
2018-10-02T10:04:02.605Z,99701.14
2018-10-02T10:06:34.162Z,99707.79
2018-10-02T10:09:11.507Z,99707.11
2018-10-02T10:11:44.886Z,99699.13
2018-10-02T10:14:18.328Z,99685.70
2018-10-02T10:16:48.991Z,99689.27
2018-10-02T10:19:23.601Z,99690.85
2018-10-02T10:21:54.603Z,99677.20
2018-10-02T10:24:26.464Z,99671.93
2018-10-02T10:26:56.299Z,99674.19
2018-10-02T10:29:30.401Z,99673.91
2018-10-02T10:32:00.477Z,99672.97
2018-10-02T10:34:31.034Z,99671.66
2018-10-02T10:37:03.446Z,99669.98
2018-10-02T10:39:35.242Z,99657.44
2018-10-02T10:42:05.762Z,99670.59
2018-10-02T10:44:39.568Z,99635.25
2018-10-02T10:47:10.425Z,99651.31
2018-10-02T10:49:40.339Z,99648.09
2018-10-02T10:52:10.463Z,99658.63
2018-10-02T10:54:40.501Z,99649.77
2018-10-02T10:57:10.039Z,99646.31
2018-10-02T10:59:39.803Z,99625.33
2018-10-02T11:02:09.926Z,99636.44
2018-10-02T11:04:41.121Z,99631.12
2018-10-02T11:07:15.416Z,99623.66
2018-10-02T11:09:48.184Z,99616.83
2018-10-02T11:12:20.581Z,99624.83
2018-10-02T11:14:52.397Z,99641.52
2018-10-02T11:17:22.043Z,99625.23
2018-10-02T11:19:58.114Z,99596.77
2018-10-02T11:22:28.583Z,99610.30
2018-10-02T11:24:59.885Z,99599.67
2018-10-02T11:27:31.421Z,99608.38
2018-10-02T11:30:05.545Z,99606.59
2018-10-02T11:32:35.524Z,99614.63
2018-10-02T11:35:05.613Z,99597.58
2018-10-02T11:37:37.730Z,99595.61
2018-10-02T11:40:07.822Z,99594.26
2018-10-02T11:42:41.239Z,99585.14
2018-10-02T11:45:21.686Z,99583.66
2018-10-02T11:47:52.161Z,99565.09
2018-10-02T11:50:31.339Z,99559.84
2018-10-02T11:53:04.491Z,99526.37
2018-10-02T11:55:37.057Z,99549.11
2018-10-02T11:58:07.498Z,99551.69
2018-10-02T12:00:40.561Z,99533.63
2018-10-02T12:03:14.143Z,99540.75
2018-10-02T12:05:47.391Z,99534.58
2018-10-02T12:08:18.326Z,99536.34
2018-10-02T12:10:51.701Z,99531.25
2018-10-02T12:13:23.288Z,99526.86
2018-10-02T12:15:54.188Z,99520.80
2018-10-02T12:18:34.455Z,99514.66
2018-10-02T12:21:05.394Z,99500.91
2018-10-02T12:23:37.157Z,99475.78
2018-10-02T12:26:07.374Z,99502.51
2018-10-02T12:28:43.560Z,99510.09
2018-10-02T12:31:18.004Z,99523.13
2018-10-02T12:33:54.049Z,99514.55
2018-10-02T12:36:26.818Z,99498.19
2018-10-02T12:38:57.010Z,99509.70
2018-10-02T12:41:26.881Z,99511.55
2018-10-02T12:43:57.120Z,99511.05
2018-10-02T12:46:29.990Z,99509.74
2018-10-02T12:49:01.858Z,99498.04
2018-10-02T12:51:33.262Z,99482.27
2018-10-02T12:54:07.034Z,99458.33
2018-10-02T12:56:42.130Z,99492.70
2018-10-02T12:59:14.543Z,99485.59
2018-10-02T13:01:49.207Z,99468.55
2018-10-02T13:04:20.278Z,99468.45
2018-10-02T13:06:53.142Z,99471.43
2018-10-02T13:09:24.429Z,99457.26
2018-10-02T13:12:00.513Z,99458.77
2018-10-02T13:14:46.434Z,99445.50
2018-10-02T13:17:16.281Z,99456.80
2018-10-02T13:19:59.136Z,99414.11
2018-10-02T13:22:29.224Z,99435.47
2018-10-02T13:25:01.982Z,99396.98
2018-10-02T13:27:46.921Z,99399.41
2018-10-02T13:30:20.504Z,99402.59
2018-10-02T13:33:10.763Z,99411.27
2018-10-02T13:39:51.153Z,99392.23
2018-10-02T13:42:26.712Z,99395.17
2018-10-02T13:45:08.684Z,99388.31
2018-10-02T13:47:45.823Z,99395.12
2018-10-02T13:50:16.498Z,99380.86
2018-10-02T13:52:48.220Z,99373.20
2018-10-02T13:55:20.007Z,99375.67
2018-10-02T13:57:50.893Z,99373.92
2018-10-02T14:00:22.850Z,99378.66
2018-10-02T14:02:52.903Z,99382.73
2018-10-02T14:05:24.907Z,99372.98
2018-10-02T14:07:58.177Z,99379.88
2018-10-02T14:10:29.705Z,99379.02
2018-10-02T14:13:02.565Z,99378.23
2018-10-02T14:15:35.256Z,99399.56
2018-10-02T14:18:05.148Z,99394.61
2018-10-02T14:20:35.868Z,99395.56
2018-10-02T14:23:05.969Z,99378.66
2018-10-02T14:25:36.074Z,99367.69
2018-10-02T14:28:06.293Z,99383.43
2018-10-02T14:30:37.256Z,99366.23
2018-10-02T14:33:06.793Z,99373.23
2018-10-02T14:35:37.511Z,99378.06
2018-10-02T14:38:07.009Z,99361.44
2018-10-02T14:40:37.094Z,99351.03
2018-10-02T14:43:06.990Z,99370.34
2018-10-02T14:45:39.208Z,99354.54
2018-10-02T14:48:08.813Z,99340.04
2018-10-02T14:50:42.004Z,99357.77
2018-10-02T14:53:23.136Z,99326.38
2018-10-02T14:55:55.353Z,99292.34
2018-10-02T14:58:29.582Z,99301.42
2018-10-02T15:01:00.249Z,99318.58
2018-10-02T15:03:31.099Z,99317.36
2018-10-02T15:06:01.957Z,99346.42
2018-10-02T15:11:20.309Z,99322.50
2018-10-02T15:13:52.736Z,99324.42
2018-10-02T15:16:30.073Z,99296.74
2018-10-02T15:19:00.207Z,99313.59
2018-10-02T15:21:31.285Z,99320.27
2018-10-02T15:24:01.689Z,99322.70
2018-10-02T15:26:31.829Z,99305.34
2018-10-02T15:29:01.658Z,99328.94
2018-10-02T15:31:39.028Z,99340.23
2018-10-02T15:34:09.233Z,99327.77
2018-10-02T15:36:42.421Z,99311.89
2018-10-02T15:39:16.362Z,99312.04
2018-10-02T15:41:46.702Z,99315.69
2018-10-02T15:44:18.899Z,99305.98
2018-10-02T15:46:48.595Z,99317.59
2018-10-02T15:49:18.081Z,99320.86
2018-10-02T15:51:49.330Z,99318.33
2018-10-02T15:54:18.861Z,99318.66
2018-10-02T15:56:48.672Z,99322.41
2018-10-02T15:59:22.006Z,99314.60
2018-10-02T16:01:51.464Z,99301.91
2018-10-02T16:04:22.940Z,99317.50
2018-10-02T16:06:53.521Z,99329.81
2018-10-02T16:09:26.362Z,99327.61
2018-10-02T16:11:56.493Z,99324.42
2018-10-02T16:14:26.271Z,99340.42
2018-10-02T16:16:57.588Z,99317.86
2018-10-02T16:19:27.472Z,99341.41
2018-10-02T16:21:57.172Z,99336.37
2018-10-02T16:24:30.603Z,99339.55
2018-10-02T16:27:01.020Z,99347.16
2018-10-02T16:29:33.699Z,99336.28
2018-10-02T16:32:10.702Z,99355.73
2018-10-02T16:34:49.286Z,99360.80
2018-10-02T16:37:25.858Z,99363.05
2018-10-02T16:40:10.369Z,99364.00
2018-10-02T16:42:46.887Z,99368.09
2018-10-02T16:45:17.709Z,99365.22
2018-10-02T16:48:09.050Z,99337.48
2018-10-02T16:50:40.093Z,99367.07
2018-10-02T16:53:10.736Z,99387.76
2018-10-02T16:55:49.863Z,99392.63
2018-10-02T16:58:21.471Z,99395.92
2018-10-02T17:00:52.603Z,99402.98
2018-10-02T17:03:32.344Z,99390.38
2018-10-02T17:06:04.072Z,99403.58
2018-10-02T17:08:38.856Z,99397.09
2018-10-02T17:11:21.176Z,99397.98
2018-10-02T17:13:52.932Z,99395.77
2018-10-02T17:16:27.653Z,99413.09
2018-10-02T17:18:57.516Z,99417.95
2018-10-02T17:21:31.678Z,99423.95
2018-10-02T17:24:04.148Z,99420.19
2018-10-02T17:26:36.137Z,99429.67
2018-10-02T17:29:08.153Z,99428.66
2018-10-02T17:31:41.898Z,99429.53
2018-10-02T17:34:26.746Z,99429.19
2018-10-02T17:37:00.442Z,99431.03
2018-10-02T17:39:38.275Z,99427.91
2018-10-02T17:42:08.347Z,99422.41
2018-10-02T17:44:40.341Z,99428.45
2018-10-02T17:47:19.704Z,99421.50
2018-10-02T17:49:50.812Z,99443.34
2018-10-02T17:52:36.744Z,99422.70
2018-10-02T17:55:10.905Z,99415.61
2018-10-02T17:57:46.917Z,99418.68
2018-10-02T18:00:49.061Z,99412.48
2018-10-02T18:03:29.220Z,99427.26
2018-10-02T18:06:07.874Z,99428.16
2018-10-02T18:08:44.007Z,99428.16
2018-10-02T18:11:19.119Z,99429.06
2018-10-02T18:13:53.157Z,99440.22
2018-10-02T18:16:39.448Z,99434.22
2018-10-02T18:19:14.472Z,99445.00
2018-10-02T18:21:46.114Z,99441.42
2018-10-02T18:24:19.737Z,99432.10
2018-10-02T18:26:51.193Z,99440.92
2018-10-02T18:29:22.325Z,99442.33
2018-10-02T18:31:54.058Z,99441.94
2018-10-02T18:34:24.660Z,99452.53
2018-10-02T18:36:55.552Z,99454.45
2018-10-02T18:39:25.767Z,99461.36
2018-10-02T18:41:57.329Z,99441.67
2018-10-02T18:44:27.653Z,99446.42
2018-10-02T18:46:58.596Z,99443.73
2018-10-02T18:49:28.830Z,99444.81
2018-10-02T18:51:59.469Z,99448.59
2018-10-02T18:54:29.962Z,99449.03
2018-10-02T18:57:01.042Z,99451.00
2018-10-02T18:59:32.075Z,99453.08
2018-10-02T19:02:03.286Z,99454.09
2018-10-02T19:04:34.321Z,99446.83
2018-10-02T19:07:05.466Z,99449.91
2018-10-02T19:09:37.054Z,99454.34
2018-10-02T19:12:11.608Z,99445.92
2018-10-02T19:14:42.461Z,99451.50
2018-10-02T19:17:15.224Z,99454.09
2018-10-02T19:19:50.247Z,99449.50
2018-10-02T19:22:19.839Z,99453.59
2018-10-02T19:24:50.062Z,99453.30
2018-10-02T19:27:19.878Z,99443.30
2018-10-02T19:31:55.566Z,99453.09
2018-10-02T19:34:25.596Z,99440.41
2018-10-02T19:36:57.327Z,99447.94
2018-10-02T19:39:29.164Z,99442.48
2018-10-02T19:41:59.919Z,99439.22
2018-10-02T19:44:31.825Z,99449.98
2018-10-02T19:47:04.319Z,99462.20
2018-10-02T19:49:39.373Z,99456.11
2018-10-02T19:52:21.560Z,99422.56
2018-10-02T19:54:57.259Z,99447.03
2018-10-02T19:57:28.960Z,99423.16
2018-10-02T20:00:04.156Z,99446.81
2018-10-02T20:02:37.527Z,99445.20
2018-10-02T20:05:10.160Z,99439.91
2018-10-02T20:07:42.553Z,99447.53
2018-10-02T20:10:15.829Z,99451.62
2018-10-02T20:12:51.098Z,99459.23
2018-10-02T20:15:23.571Z,99452.08
2018-10-02T20:17:58.496Z,99451.83
2018-10-02T20:20:30.921Z,99452.07
2018-10-02T20:23:02.309Z,99454.39
2018-10-02T20:25:33.773Z,99462.21
2018-10-02T20:28:08.975Z,99459.53
2018-10-02T20:30:41.572Z,99467.41
2018-10-02T20:33:14.269Z,99467.49
2018-10-02T20:35:47.150Z,99479.66
2018-10-02T20:38:19.703Z,99473.52
2018-10-02T20:40:55.209Z,99466.15
2018-10-02T20:43:31.437Z,99458.45
2018-10-02T20:46:08.109Z,99467.81
2018-10-02T20:48:41.620Z,99455.95
2018-10-02T20:51:15.188Z,99461.88
2018-10-02T20:53:52.725Z,99459.53
2018-10-02T20:56:35.006Z,99457.94
2018-10-02T20:59:06.638Z,99458.17
2018-10-02T21:01:39.173Z,99467.66
2018-10-02T21:04:10.250Z,99473.11
2018-10-02T21:06:39.882Z,99474.83
2018-10-02T21:09:11.336Z,99471.00
2018-10-02T21:11:41.089Z,99479.62
2018-10-02T21:14:10.754Z,99473.78
2018-10-02T21:16:41.599Z,99474.23
2018-10-02T21:19:16.283Z,99486.61
2018-10-02T21:21:46.794Z,99475.66
2018-10-02T21:24:16.919Z,99464.50
2018-10-02T21:26:51.296Z,99465.31
2018-10-02T21:29:22.461Z,99467.49
2018-10-02T21:31:52.591Z,99458.96
2018-10-02T21:34:23.826Z,99464.06
2018-10-02T21:36:54.560Z,99462.52
2018-10-02T21:39:24.644Z,99462.51
2018-10-02T21:41:54.579Z,99460.24
2018-10-02T21:44:24.487Z,99462.63
2018-10-02T21:46:55.065Z,99469.78
2018-10-02T21:49:25.830Z,99459.37
2018-10-02T21:51:59.025Z,99453.63
2018-10-02T21:54:34.271Z,99456.88
2018-10-02T21:57:07.329Z,99460.59
2018-10-02T21:59:39.660Z,99440.20
2018-10-02T22:02:12.818Z,99455.61
2018-10-02T22:04:44.182Z,99452.38
2018-10-02T22:07:13.761Z,99450.81
2018-10-02T22:09:44.268Z,99445.50
2018-10-02T22:12:13.851Z,99438.20
2018-10-02T22:14:44.546Z,99447.58
2018-10-02T22:17:14.924Z,99447.43
2018-10-02T22:19:45.221Z,99454.65
2018-10-02T22:22:14.940Z,99454.79
2018-10-02T22:24:46.276Z,99456.31
2018-10-02T22:27:16.312Z,99459.69
2018-10-02T22:29:47.170Z,99450.11
2018-10-02T22:32:20.151Z,99445.20
2018-10-02T22:34:50.096Z,99452.13
2018-10-02T22:37:20.697Z,99440.98
2018-10-02T22:39:50.620Z,99481.59
2018-10-02T22:42:20.483Z,99447.88
2018-10-02T22:44:49.987Z,99471.95
2018-10-02T22:47:21.201Z,99479.21
2018-10-02T22:49:51.190Z,99472.05
2018-10-02T22:52:21.524Z,99470.73
2018-10-02T22:54:51.486Z,99474.23
2018-10-02T22:57:21.584Z,99472.56
2018-10-02T22:59:52.011Z,99443.80
2018-10-02T23:02:22.381Z,99493.41
2018-10-02T23:04:53.876Z,99494.06
2018-10-02T23:07:24.033Z,99497.20
2018-10-02T23:09:54.565Z,99502.39
2018-10-02T23:12:24.732Z,99500.00
2018-10-02T23:14:55.117Z,99507.43
2018-10-02T23:17:25.922Z,99507.08
2018-10-02T23:19:56.495Z,99508.89
2018-10-02T23:22:27.152Z,99497.17
2018-10-02T23:24:57.566Z,99504.75
2018-10-02T23:27:28.224Z,99509.58
2018-10-02T23:29:58.236Z,99507.40
2018-10-02T23:34:58.824Z,99510.41
2018-10-02T23:37:29.484Z,99513.63
2018-10-02T23:39:59.882Z,99521.04
2018-10-02T23:42:30.166Z,99511.49
2018-10-02T23:45:00.689Z,99526.38
2018-10-02T23:47:31.169Z,99514.35
2018-10-02T23:50:01.320Z,99529.77
2018-10-02T23:52:31.361Z,99524.16
2018-10-02T23:55:01.690Z,99530.88
2018-10-02T23:57:31.736Z,99534.66
